Time;durP1;ratioP1;P1;durP2;ratioP2;P2;SDS_P1;SDS_P2;PMS_P1;PMS_P2;Temp;Humidity;BMP_temperature;BMP_pressure;BME280_temperature;BME280_humidity;BME280_pressure;Samples;Min_cycle;Max_cycle;Signal;HPM_P1;HPM_P2
2021/10/31 00:01:04;;;;;;;17.60;1.30;;;;;;;;;;5097978;28;20045;-59
2021/10/31 00:03:31;;;;;;;20.45;0.90;;;;;;;;;;5097337;28;20084;-59
2021/10/31 00:05:56;;;;;;;18.38;1.25;;;;;;;;;;5097951;28;20461;-59
2021/10/31 00:08:22;;;;;;;24.60;1.73;;;;;;;;;;5098299;28;20157;-59
2021/10/31 00:10:49;;;;;;;15.82;1.42;;;;;;;;;;5096432;28;20031;-60
2021/10/31 00:13:14;;;;;;;22.52;1.60;;;;;;;;;;5101977;28;20401;-59
2021/10/31 00:15:40;;;;;;;20.75;1.33;;;;;;;;;;5096133;28;20028;-59
2021/10/31 00:18:06;;;;;;;20.25;1.23;;;;;;;;;;5096562;28;20548;-59
2021/10/31 00:20:31;;;;;;;15.73;0.90;;;;;;;;;;5094531;28;20027;-59
2021/10/31 00:22:57;;;;;;;19.23;1.55;;;;;;;;;;5099072;28;20501;-59
2021/10/31 00:25:22;;;;;;;24.90;1.58;;;;;;;;;;5094345;28;20024;-60
2021/10/31 00:27:48;;;;;;;14.43;1.50;;;;;;;;;;5093923;28;20115;-59
2021/10/31 00:30:13;;;;;;;22.65;2.10;;;;;;;;;;5099459;28;20027;-58
2021/10/31 00:32:39;;;;;;;23.40;1.58;;;;;;;;;;5098759;28;20032;-58
2021/10/31 00:35:05;;;;;;;29.05;1.95;;;;;;;;;;5093630;28;20039;-59
2021/10/31 00:37:30;;;;;;;14.93;1.70;;;;;;;;;;5094197;28;20031;-59
2021/10/31 00:39:55;;;;;;;23.92;1.67;;;;;;;;;;5097041;28;20504;-58
2021/10/31 00:42:21;;;;;;;28.55;1.95;;;;;;;;;;5097257;28;20479;-59
2021/10/31 00:44:46;;;;;;;35.70;3.22;;;;;;;;;;5096407;28;20039;-59
2021/10/31 00:47:12;;;;;;;24.45;1.88;;;;;;;;;;5091348;28;20418;-58
2021/10/31 00:49:38;;;;;;;28.55;2.90;;;;;;;;;;5085581;28;20034;-58
2021/10/31 00:52:03;;;;;;;21.13;2.17;;;;;;;;;;5098747;28;20030;-59
2021/10/31 00:54:30;;;;;;;25.45;2.20;;;;;;;;;;5095636;28;20039;-59
2021/10/31 00:56:56;;;;;;;43.38;4.13;;;;;;;;;;5097232;28;20020;-58
2021/10/31 00:59:23;;;;;;;44.22;2.50;;;;;;;;;;5101140;28;20398;-58
2021/10/31 01:01:50;;;;;;;38.53;1.95;;;;;;;;;;5091930;28;20040;-58
2021/10/31 01:04:20;;;;;;;39.38;2.40;;;;;;;;;;5099656;28;20118;-57
2021/10/31 01:06:58;;;;;;;27.65;1.88;;;;;;;;;;5092344;28;20085;-57
2021/10/31 01:09:57;;;;;;;35.17;1.88;;;;;;;;;;5096578;27;20410;-57
2021/10/31 01:12:48;;;;;;;17.55;1.73;;;;;;;;;;5099086;27;20023;-57
2021/10/31 01:15:26;;;;;;;25.67;1.77;;;;;;;;;;5092957;27;20034;-57
2021/10/31 01:18:04;;;;;;;28.23;2.13;;;;;;;;;;5095033;28;20593;-57
2021/10/31 01:21:04;;;;;;;28.95;2.80;;;;;;;;;;5094656;28;20051;-57
2021/10/31 01:23:47;;;;;;;43.75;2.35;;;;;;;;;;5094659;28;20056;-57
2021/10/31 01:26:22;;;;;;;33.42;2.67;;;;;;;;;;5089955;28;20316;-56
2021/10/31 01:29:02;;;;;;;30.23;2.75;;;;;;;;;;5094000;28;20056;-57
2021/10/31 01:31:39;;;;;;;27.13;3.53;;;;;;;;;;5093383;28;20031;-56
2021/10/31 01:34:16;;;;;;;22.90;1.98;;;;;;;;;;5095202;28;20028;-57
2021/10/31 01:37:17;;;;;;;14.98;0.98;;;;;;;;;;5094363;28;20494;-56
2021/10/31 01:39:50;;;;;;;15.57;2.13;;;;;;;;;;5093683;28;20035;-56
2021/10/31 01:42:33;;;;;;;12.32;1.25;;;;;;;;;;5090279;28;20479;-57
2021/10/31 01:45:02;;;;;;;14.10;1.08;;;;;;;;;;5095426;28;20164;-59
2021/10/31 01:47:45;;;;;;;15.77;1.27;;;;;;;;;;5095111;28;20035;-59
2021/10/31 01:50:39;;;;;;;21.63;2.13;;;;;;;;;;5092028;28;20058;-59
2021/10/31 01:53:08;;;;;;;23.83;1.60;;;;;;;;;;5091107;28;20119;-56
2021/10/31 01:55:39;;;;;;;32.33;3.80;;;;;;;;;;5092358;28;20032;-56
2021/10/31 01:58:07;;;;;;;26.63;2.33;;;;;;;;;;5100214;28;20122;-56
2021/10/31 02:00:34;;;;;;;30.80;1.75;;;;;;;;;;5094257;28;20036;-58
2021/10/31 02:03:03;;;;;;;18.27;1.58;;;;;;;;;;5094145;28;20032;-57
2021/10/31 02:05:37;;;;;;;11.52;1.10;;;;;;;;;;5099599;28;20073;-57
2021/10/31 02:08:06;;;;;;;9.98;0.93;;;;;;;;;;5092736;28;20107;-58
2021/10/31 02:10:33;;;;;;;17.63;1.55;;;;;;;;;;5095967;28;20324;-57
2021/10/31 02:13:01;;;;;;;9.50;0.60;;;;;;;;;;5094230;28;20027;-56
2021/10/31 02:15:29;;;;;;;9.75;1.23;;;;;;;;;;5096724;28;20020;-58
2021/10/31 02:17:56;;;;;;;20.85;2.60;;;;;;;;;;5089844;28;20480;-58
2021/10/31 02:20:23;;;;;;;30.00;2.47;;;;;;;;;;5091180;28;20020;-57
2021/10/31 02:23:00;;;;;;;26.50;2.00;;;;;;;;;;5093472;28;20059;-58
2021/10/31 02:25:26;;;;;;;45.50;3.72;;;;;;;;;;5094503;28;20577;-58
2021/10/31 02:27:52;;;;;;;25.92;2.03;;;;;;;;;;5091059;28;20113;-57
2021/10/31 02:30:18;;;;;;;29.88;2.28;;;;;;;;;;5094588;28;20078;-58
2021/10/31 02:32:44;;;;;;;26.67;2.03;;;;;;;;;;5096921;28;20063;-57
2021/10/31 02:35:11;;;;;;;19.83;1.08;;;;;;;;;;5097488;28;20074;-57
2021/10/31 02:37:38;;;;;;;17.52;1.77;;;;;;;;;;5090115;28;20027;-58
2021/10/31 02:40:06;;;;;;;16.42;1.42;;;;;;;;;;5096671;28;20032;-57
2021/10/31 02:42:32;;;;;;;18.77;1.20;;;;;;;;;;5096508;28;20387;-56
2021/10/31 02:44:57;;;;;;;14.68;1.05;;;;;;;;;;5098161;28;20036;-58
2021/10/31 02:47:31;;;;;;;10.00;0.68;;;;;;;;;;5076582;28;20042;-57
2021/10/31 02:49:57;;;;;;;9.55;0.60;;;;;;;;;;5091014;28;20031;-57
2021/10/31 02:52:35;;;;;;;15.00;0.93;;;;;;;;;;5071941;28;20032;-58
2021/10/31 02:55:13;;;;;;;10.73;0.52;;;;;;;;;;5090113;28;20116;-56
2021/10/31 02:57:41;;;;;;;7.50;1.52;;;;;;;;;;5096902;28;20526;-58
2021/10/31 03:00:07;;;;;;;4.32;0.10;;;;;;;;;;5090872;28;20541;-56
2021/10/31 03:02:34;;;;;;;1.85;0.10;;;;;;;;;;5094013;28;20046;-56
2021/10/31 03:05:01;;;;;;;3.83;0.00;;;;;;;;;;5093726;28;20466;-58
2021/10/31 03:07:27;;;;;;;1.88;0.15;;;;;;;;;;5092805;28;20051;-57
2021/10/31 03:09:53;;;;;;;1.55;0.00;;;;;;;;;;5095432;28;20057;-56
2021/10/31 03:12:19;;;;;;;1.90;0.00;;;;;;;;;;5093362;28;20043;-56
2021/10/31 03:14:45;;;;;;;0.45;0.00;;;;;;;;;;5096246;28;20118;-57
2021/10/31 03:17:11;;;;;;;0.70;0.10;;;;;;;;;;5089457;28;20050;-56
2021/10/31 03:19:38;;;;;;;3.40;0.15;;;;;;;;;;5094953;28;20672;-57
2021/10/31 03:22:05;;;;;;;6.32;0.20;;;;;;;;;;5092715;28;20028;-55
2021/10/31 03:24:31;;;;;;;0.95;0.10;;;;;;;;;;5093054;28;20020;-56
2021/10/31 03:26:56;;;;;;;2.00;0.43;;;;;;;;;;5077496;28;20035;-56
2021/10/31 03:29:24;;;;;;;0.25;0.10;;;;;;;;;;5095597;28;20032;-57
2021/10/31 03:31:52;;;;;;;3.33;0.10;;;;;;;;;;5092190;28;20081;-55
2021/10/31 03:34:18;;;;;;;5.93;0.13;;;;;;;;;;5092008;28;20099;-57
2021/10/31 03:36:45;;;;;;;3.33;0.20;;;;;;;;;;5087941;28;20166;-56
2021/10/31 03:39:10;;;;;;;6.97;0.22;;;;;;;;;;5092087;28;20110;-56
2021/10/31 03:41:36;;;;;;;5.72;0.28;;;;;;;;;;5095809;28;20032;-57
2021/10/31 03:44:03;;;;;;;8.43;0.43;;;;;;;;;;5092941;28;20031;-57
2021/10/31 03:46:28;;;;;;;8.55;0.25;;;;;;;;;;5093933;28;20067;-58
2021/10/31 03:48:54;;;;;;;5.53;0.10;;;;;;;;;;5089745;28;20067;-58
2021/10/31 03:51:19;;;;;;;7.97;0.43;;;;;;;;;;5097079;28;20394;-57
2021/10/31 03:53:45;;;;;;;4.18;0.10;;;;;;;;;;5094700;28;20398;-58
2021/10/31 03:56:10;;;;;;;4.13;0.10;;;;;;;;;;5076071;28;20036;-58
2021/10/31 03:58:36;;;;;;;9.48;0.55;;;;;;;;;;5093592;28;20100;-57
2021/10/31 04:01:01;;;;;;;7.07;0.28;;;;;;;;;;5092318;28;20028;-57
2021/10/31 04:03:27;;;;;;;2.10;0.20;;;;;;;;;;5090615;28;20401;-57
2021/10/31 04:05:53;;;;;;;10.05;0.30;;;;;;;;;;5092344;28;20031;-56
2021/10/31 04:08:18;;;;;;;5.47;0.20;;;;;;;;;;5095951;28;20120;-57
2021/10/31 04:10:44;;;;;;;5.13;0.30;;;;;;;;;;5076971;28;20101;-57
2021/10/31 04:13:09;;;;;;;1.70;0.20;;;;;;;;;;5094309;28;20479;-56
2021/10/31 04:15:35;;;;;;;2.63;0.10;;;;;;;;;;5098239;28;20027;-57
2021/10/31 04:18:01;;;;;;;5.03;0.30;;;;;;;;;;5098738;28;20034;-57
2021/10/31 04:20:26;;;;;;;3.40;0.20;;;;;;;;;;5099832;28;20069;-56
2021/10/31 04:22:52;;;;;;;4.97;0.15;;;;;;;;;;5096846;28;20394;-57
2021/10/31 04:25:17;;;;;;;5.88;0.30;;;;;;;;;;5098192;28;20031;-56
2021/10/31 04:27:43;;;;;;;2.22;0.08;;;;;;;;;;5096823;28;20115;-56
2021/10/31 04:30:10;;;;;;;2.10;0.10;;;;;;;;;;5093420;28;20522;-58
2021/10/31 04:32:36;;;;;;;7.45;0.38;;;;;;;;;;5095691;28;20044;-56
2021/10/31 04:35:02;;;;;;;1.83;0.22;;;;;;;;;;5095790;28;20016;-57
2021/10/31 04:37:28;;;;;;;11.75;0.25;;;;;;;;;;5095010;28;20497;-56
2021/10/31 04:39:55;;;;;;;4.72;0.85;;;;;;;;;;5093939;28;20032;-57
2021/10/31 04:42:20;;;;;;;4.90;0.30;;;;;;;;;;5099946;28;20027;-57
2021/10/31 04:44:46;;;;;;;2.50;0.45;;;;;;;;;;5093690;28;20068;-58
2021/10/31 04:47:11;;;;;;;2.97;0.30;;;;;;;;;;5097431;28;20032;-57
2021/10/31 04:49:37;;;;;;;8.85;0.25;;;;;;;;;;5097601;28;20115;-56
2021/10/31 04:52:04;;;;;;;6.30;0.63;;;;;;;;;;5091212;28;20020;-56
2021/10/31 04:54:31;;;;;;;10.43;0.40;;;;;;;;;;5095261;28;20031;-57
2021/10/31 04:56:57;;;;;;;6.82;0.30;;;;;;;;;;5104587;27;20024;-56
2021/10/31 04:59:22;;;;;;;7.70;0.20;;;;;;;;;;5096109;27;20046;-57
2021/10/31 05:01:49;;;;;;;4.38;0.28;;;;;;;;;;5098962;28;20036;-56
2021/10/31 05:04:16;;;;;;;6.72;0.52;;;;;;;;;;5098428;28;20089;-57
2021/10/31 05:06:41;;;;;;;4.57;0.60;;;;;;;;;;5095467;28;20371;-57
2021/10/31 05:09:07;;;;;;;2.55;0.20;;;;;;;;;;5101357;28;20042;-56
2021/10/31 05:11:32;;;;;;;4.53;0.30;;;;;;;;;;5092391;28;20047;-56
2021/10/31 05:13:58;;;;;;;5.00;0.65;;;;;;;;;;5093379;28;20043;-57
2021/10/31 05:16:23;;;;;;;3.38;0.20;;;;;;;;;;5096068;28;20772;-58
2021/10/31 05:18:49;;;;;;;4.40;0.20;;;;;;;;;;5096175;28;20036;-57
2021/10/31 05:21:14;;;;;;;2.58;0.20;;;;;;;;;;5094951;28;20829;-58
2021/10/31 05:23:40;;;;;;;9.02;0.17;;;;;;;;;;5093373;28;20036;-58
2021/10/31 05:26:05;;;;;;;11.05;0.30;;;;;;;;;;5094712;28;20039;-58
2021/10/31 05:28:31;;;;;;;4.97;0.22;;;;;;;;;;5103484;28;20028;-57
2021/10/31 05:30:57;;;;;;;3.47;0.05;;;;;;;;;;5094474;28;20059;-57
2021/10/31 05:33:24;;;;;;;3.83;0.20;;;;;;;;;;5091318;28;20032;-58
2021/10/31 05:35:53;;;;;;;2.38;0.25;;;;;;;;;;5093058;28;20039;-57
2021/10/31 05:38:20;;;;;;;7.38;0.38;;;;;;;;;;5095938;28;20035;-57
2021/10/31 05:40:50;;;;;;;11.45;0.15;;;;;;;;;;5095396;28;20038;-58
2021/10/31 05:43:16;;;;;;;2.20;0.10;;;;;;;;;;5095263;28;20039;-58
2021/10/31 05:45:42;;;;;;;7.80;0.55;;;;;;;;;;5094239;28;20027;-56
2021/10/31 05:48:08;;;;;;;2.10;0.30;;;;;;;;;;5080398;27;20055;-61
2021/10/31 05:50:34;;;;;;;3.42;0.25;;;;;;;;;;5090848;28;20482;-57
2021/10/31 05:53:00;;;;;;;1.05;0.13;;;;;;;;;;5090080;28;20039;-57
2021/10/31 05:55:26;;;;;;;3.00;0.25;;;;;;;;;;5091776;28;20032;-57
2021/10/31 05:57:51;;;;;;;4.40;0.10;;;;;;;;;;5082409;28;20024;-56
2021/10/31 06:00:17;;;;;;;4.90;0.35;;;;;;;;;;5094308;28;20055;-56
2021/10/31 06:02:44;;;;;;;2.97;0.40;;;;;;;;;;5095439;28;20039;-56
2021/10/31 06:05:12;;;;;;;7.20;0.30;;;;;;;;;;5090838;28;20515;-58
2021/10/31 06:07:38;;;;;;;10.07;0.20;;;;;;;;;;5094362;28;20103;-55
2021/10/31 06:10:04;;;;;;;5.97;0.20;;;;;;;;;;5097497;28;20034;-56
2021/10/31 06:12:29;;;;;;;1.52;0.17;;;;;;;;;;5078874;28;20031;-57
2021/10/31 06:14:56;;;;;;;6.43;0.75;;;;;;;;;;5091563;28;20558;-57
2021/10/31 06:17:22;;;;;;;2.90;0.30;;;;;;;;;;5093926;28;20380;-56
2021/10/31 06:19:47;;;;;;;2.65;0.20;;;;;;;;;;5091963;28;20040;-56
2021/10/31 06:22:13;;;;;;;2.38;0.95;;;;;;;;;;5095932;28;20116;-57
2021/10/31 06:24:39;;;;;;;1.48;0.30;;;;;;;;;;5096770;28;20545;-56
2021/10/31 06:27:05;;;;;;;3.28;0.55;;;;;;;;;;5090227;28;20032;-56
2021/10/31 06:29:31;;;;;;;5.50;0.40;;;;;;;;;;5092395;28;20035;-55
2021/10/31 06:31:56;;;;;;;4.90;0.43;;;;;;;;;;5094808;28;20087;-57
2021/10/31 06:34:22;;;;;;;6.15;0.35;;;;;;;;;;5103112;28;20410;-55
2021/10/31 06:36:48;;;;;;;4.85;0.28;;;;;;;;;;5090994;28;20066;-57
2021/10/31 06:39:14;;;;;;;1.10;0.20;;;;;;;;;;5088437;28;20568;-57
2021/10/31 06:41:39;;;;;;;1.00;0.15;;;;;;;;;;5091926;28;20063;-56
2021/10/31 06:44:05;;;;;;;7.72;0.25;;;;;;;;;;5093259;28;20456;-57
2021/10/31 06:46:32;;;;;;;2.97;0.30;;;;;;;;;;5097919;28;20047;-57
2021/10/31 06:48:58;;;;;;;2.35;0.30;;;;;;;;;;5093792;28;20050;-58
2021/10/31 06:51:24;;;;;;;13.02;1.13;;;;;;;;;;5091602;28;20028;-56
2021/10/31 06:53:50;;;;;;;7.63;0.40;;;;;;;;;;5092883;28;20089;-56
2021/10/31 06:56:16;;;;;;;9.98;0.70;;;;;;;;;;5094814;28;20020;-56
2021/10/31 06:58:42;;;;;;;13.38;0.47;;;;;;;;;;5096035;28;20051;-57
2021/10/31 07:01:07;;;;;;;11.13;0.50;;;;;;;;;;5095571;28;20050;-56
2021/10/31 07:03:33;;;;;;;6.57;0.65;;;;;;;;;;5092889;28;20028;-57
2021/10/31 07:06:01;;;;;;;2.70;0.20;;;;;;;;;;5090911;28;20032;-57
2021/10/31 07:08:26;;;;;;;8.32;0.30;;;;;;;;;;5095192;28;20016;-57
2021/10/31 07:10:52;;;;;;;18.85;1.20;;;;;;;;;;5095092;28;20432;-57
2021/10/31 07:13:18;;;;;;;11.05;0.50;;;;;;;;;;5093372;28;20030;-56
2021/10/31 07:15:43;;;;;;;11.05;0.50;;;;;;;;;;5101467;28;20024;-56
2021/10/31 07:18:09;;;;;;;14.70;0.70;;;;;;;;;;5095295;28;20442;-56
2021/10/31 07:20:34;;;;;;;10.63;0.45;;;;;;;;;;5099267;28;20498;-56
2021/10/31 07:23:00;;;;;;;10.15;0.50;;;;;;;;;;5098900;28;20019;-58
2021/10/31 07:25:27;;;;;;;10.02;0.38;;;;;;;;;;5096395;28;20034;-58
2021/10/31 07:27:54;;;;;;;8.00;0.20;;;;;;;;;;5094841;28;20462;-58
2021/10/31 07:30:20;;;;;;;11.65;0.60;;;;;;;;;;5097627;28;20028;-58
2021/10/31 07:32:56;;;;;;;4.82;0.30;;;;;;;;;;5101000;28;20022;-59
2021/10/31 07:35:22;;;;;;;5.88;0.22;;;;;;;;;;5109138;28;20027;-58
2021/10/31 07:37:47;;;;;;;10.43;0.80;;;;;;;;;;5101589;28;20024;-58
2021/10/31 07:40:13;;;;;;;10.10;0.88;;;;;;;;;;5105395;28;20502;-60
2021/10/31 07:42:39;;;;;;;13.60;0.90;;;;;;;;;;5106438;28;20827;-59
2021/10/31 07:45:05;;;;;;;16.35;1.35;;;;;;;;;;5106083;28;20097;-59
2021/10/31 07:47:30;;;;;;;6.45;0.60;;;;;;;;;;5105052;28;20077;-59
2021/10/31 07:49:56;;;;;;;5.97;0.43;;;;;;;;;;5102010;27;20055;-59
2021/10/31 07:52:22;;;;;;;17.45;0.90;;;;;;;;;;5095423;28;20081;-58
2021/10/31 07:54:49;;;;;;;13.30;0.98;;;;;;;;;;5100163;28;20024;-61
2021/10/31 07:57:17;;;;;;;16.67;1.20;;;;;;;;;;5096108;28;20416;-59
2021/10/31 07:59:42;;;;;;;14.65;0.50;;;;;;;;;;5097713;28;20464;-59
2021/10/31 08:02:08;;;;;;;11.52;0.60;;;;;;;;;;5094844;28;20036;-56
2021/10/31 08:04:33;;;;;;;17.52;1.30;;;;;;;;;;5097038;28;20065;-56
2021/10/31 08:06:59;;;;;;;19.48;1.02;;;;;;;;;;5095122;28;20039;-56
2021/10/31 08:09:25;;;;;;;8.80;0.70;;;;;;;;;;5093669;28;20414;-57
2021/10/31 08:11:50;;;;;;;2.13;0.30;;;;;;;;;;5100239;28;20055;-57
2021/10/31 08:14:16;;;;;;;17.20;0.88;;;;;;;;;;5091685;27;20047;-57
2021/10/31 08:16:41;;;;;;;9.63;0.30;;;;;;;;;;5095096;28;20080;-57
2021/10/31 08:19:08;;;;;;;10.25;1.67;;;;;;;;;;5093157;28;20040;-57
2021/10/31 08:21:35;;;;;;;8.48;0.30;;;;;;;;;;5094534;28;20076;-57
2021/10/31 08:24:01;;;;;;;8.85;0.52;;;;;;;;;;5098591;28;20134;-58
2021/10/31 08:26:28;;;;;;;11.00;0.22;;;;;;;;;;5097280;28;20126;-57
2021/10/31 08:28:54;;;;;;;12.07;0.70;;;;;;;;;;5095016;27;20526;-57
2021/10/31 08:31:25;;;;;;;7.80;0.98;;;;;;;;;;5096715;28;20449;-57
2021/10/31 08:33:58;;;;;;;11.85;0.40;;;;;;;;;;5096826;28;20038;-58
2021/10/31 08:36:25;;;;;;;14.75;0.75;;;;;;;;;;5092536;28;20035;-58
2021/10/31 08:38:51;;;;;;;10.43;0.45;;;;;;;;;;5095471;28;20383;-57
2021/10/31 08:41:21;;;;;;;12.82;1.33;;;;;;;;;;5095191;28;20031;-57
2021/10/31 08:43:48;;;;;;;7.28;0.60;;;;;;;;;;5091363;28;20051;-58
2021/10/31 08:46:15;;;;;;;11.23;0.88;;;;;;;;;;5093177;28;20035;-58
2021/10/31 08:48:41;;;;;;;16.90;0.75;;;;;;;;;;5094398;28;20024;-56
2021/10/31 08:51:07;;;;;;;15.52;1.25;;;;;;;;;;5093097;28;20525;-56
2021/10/31 08:53:33;;;;;;;8.73;0.60;;;;;;;;;;5101115;28;20035;-57
2021/10/31 08:55:59;;;;;;;10.15;0.55;;;;;;;;;;5096687;27;20433;-57
2021/10/31 08:58:26;;;;;;;7.55;0.52;;;;;;;;;;5097961;28;20056;-57
2021/10/31 09:00:51;;;;;;;7.13;0.63;;;;;;;;;;5100008;27;20032;-57
2021/10/31 09:03:18;;;;;;;8.38;0.90;;;;;;;;;;5097168;28;20038;-57
2021/10/31 09:05:43;;;;;;;12.07;0.32;;;;;;;;;;5097531;28;20465;-58
2021/10/31 09:08:09;;;;;;;8.43;1.23;;;;;;;;;;5097683;28;20046;-56
2021/10/31 09:10:37;;;;;;;8.77;1.35;;;;;;;;;;5094659;27;20521;-57
2021/10/31 09:13:03;;;;;;;9.82;0.75;;;;;;;;;;5096968;28;20160;-59
2021/10/31 09:15:29;;;;;;;10.90;0.98;;;;;;;;;;5094065;28;20032;-57
2021/10/31 09:17:59;;;;;;;13.43;0.50;;;;;;;;;;5090150;28;20514;-58
2021/10/31 09:20:26;;;;;;;9.90;0.90;;;;;;;;;;5099726;28;20032;-57
2021/10/31 09:22:55;;;;;;;11.10;0.75;;;;;;;;;;5097004;28;20027;-57
2021/10/31 09:25:22;;;;;;;9.30;0.65;;;;;;;;;;5080645;28;20033;-58
2021/10/31 09:27:48;;;;;;;10.75;0.80;;;;;;;;;;5095730;28;20031;-57
2021/10/31 09:30:14;;;;;;;11.18;0.63;;;;;;;;;;5093948;28;20051;-58
2021/10/31 09:32:43;;;;;;;7.55;0.60;;;;;;;;;;5098058;28;20032;-57
2021/10/31 09:35:09;;;;;;;30.63;1.30;;;;;;;;;;5096111;28;20035;-56
2021/10/31 09:37:35;;;;;;;15.45;0.80;;;;;;;;;;5101627;28;20028;-57
2021/10/31 09:40:03;;;;;;;7.68;0.60;;;;;;;;;;5077779;28;20042;-57
2021/10/31 09:42:29;;;;;;;6.35;0.75;;;;;;;;;;5093393;28;20039;-57
2021/10/31 09:44:54;;;;;;;17.48;1.88;;;;;;;;;;5095768;28;20401;-58
2021/10/31 09:47:24;;;;;;;9.38;0.68;;;;;;;;;;5100274;28;20413;-57
2021/10/31 09:49:50;;;;;;;10.55;0.70;;;;;;;;;;5100736;28;20028;-58
2021/10/31 09:52:16;;;;;;;6.65;1.02;;;;;;;;;;5093178;28;20402;-58
2021/10/31 09:54:42;;;;;;;10.00;0.70;;;;;;;;;;5100785;28;20035;-57
2021/10/31 09:57:07;;;;;;;7.28;1.20;;;;;;;;;;5082138;28;20031;-58
2021/10/31 09:59:38;;;;;;;9.20;1.42;;;;;;;;;;5099168;28;20044;-57
2021/10/31 10:04:37;;;;;;;9.50;1.05;;;;;;;;;;5105140;28;20035;-58
2021/10/31 10:07:05;;;;;;;8.07;0.60;;;;;;;;;;5096040;28;20486;-57
2021/10/31 10:09:32;;;;;;;13.77;1.15;;;;;;;;;;5096102;28;20353;-57
2021/10/31 10:12:10;;;;;;;12.38;1.05;;;;;;;;;;5090775;28;20027;-58
2021/10/31 10:14:37;;;;;;;13.18;1.33;;;;;;;;;;5096605;28;20037;-57
2021/10/31 10:17:05;;;;;;;12.85;1.00;;;;;;;;;;5093674;28;20036;-57
2021/10/31 10:19:36;;;;;;;14.52;1.27;;;;;;;;;;5097902;28;20038;-57
2021/10/31 10:22:10;;;;;;;6.20;0.50;;;;;;;;;;5097415;28;20066;-57
2021/10/31 10:24:47;;;;;;;9.20;1.20;;;;;;;;;;5099541;28;20544;-57
2021/10/31 10:27:13;;;;;;;7.47;0.52;;;;;;;;;;5096990;28;20080;-57
2021/10/31 10:29:40;;;;;;;5.40;0.57;;;;;;;;;;5103273;28;20039;-57
2021/10/31 10:32:21;;;;;;;5.88;1.45;;;;;;;;;;5096702;28;20478;-57
2021/10/31 10:34:54;;;;;;;11.73;0.77;;;;;;;;;;5094097;28;20028;-57
2021/10/31 10:37:26;;;;;;;9.63;0.70;;;;;;;;;;5093265;28;20544;-57
2021/10/31 10:39:53;;;;;;;10.25;0.22;;;;;;;;;;5095481;28;20028;-58
2021/10/31 10:42:32;;;;;;;9.38;0.70;;;;;;;;;;5096738;28;20493;-58
2021/10/31 10:45:07;;;;;;;3.33;0.40;;;;;;;;;;5073786;28;20032;-57
2021/10/31 10:47:40;;;;;;;4.40;0.45;;;;;;;;;;5093669;28;20051;-58
2021/10/31 10:50:13;;;;;;;5.38;0.30;;;;;;;;;;5092313;28;20024;-57
2021/10/31 10:52:42;;;;;;;9.20;0.20;;;;;;;;;;5059990;28;20448;-57
2021/10/31 10:55:24;;;;;;;5.85;0.40;;;;;;;;;;5095440;28;20023;-58
2021/10/31 10:58:02;;;;;;;9.80;0.38;;;;;;;;;;5099309;28;20019;-57
2021/10/31 11:00:35;;;;;;;2.83;0.10;;;;;;;;;;5099241;28;20090;-58
2021/10/31 11:03:02;;;;;;;4.53;0.30;;;;;;;;;;5095290;28;20034;-57
2021/10/31 11:05:33;;;;;;;3.53;0.35;;;;;;;;;;5101448;28;20028;-57
2021/10/31 11:08:00;;;;;;;7.57;0.35;;;;;;;;;;5098254;28;20062;-57
2021/10/31 11:10:28;;;;;;;5.43;0.52;;;;;;;;;;5093967;28;20031;-57
2021/10/31 11:13:05;;;;;;;7.47;0.38;;;;;;;;;;5094237;28;20028;-57
2021/10/31 11:15:32;;;;;;;7.40;0.30;;;;;;;;;;5091107;28;20028;-56
2021/10/31 11:18:01;;;;;;;6.38;0.40;;;;;;;;;;5095729;28;20293;-57
2021/10/31 11:20:34;;;;;;;5.22;0.22;;;;;;;;;;5100012;28;20235;-57
2021/10/31 11:23:05;;;;;;;8.40;0.43;;;;;;;;;;5100129;28;20031;-58
2021/10/31 11:25:34;;;;;;;9.93;0.85;;;;;;;;;;5099501;28;20127;-57
2021/10/31 11:28:02;;;;;;;6.95;0.32;;;;;;;;;;5101322;28;20027;-58
2021/10/31 11:30:30;;;;;;;2.00;0.30;;;;;;;;;;5098779;28;20032;-57
2021/10/31 11:32:57;;;;;;;8.57;0.40;;;;;;;;;;5094701;28;20081;-59
2021/10/31 11:35:24;;;;;;;6.13;0.35;;;;;;;;;;5072587;28;20020;-57
2021/10/31 11:37:59;;;;;;;1.75;0.20;;;;;;;;;;5091602;28;20066;-57
2021/10/31 11:40:34;;;;;;;9.10;0.77;;;;;;;;;;5095410;28;20024;-57
2021/10/31 11:43:02;;;;;;;5.97;0.50;;;;;;;;;;5093155;28;20028;-57
2021/10/31 11:45:34;;;;;;;7.95;0.30;;;;;;;;;;5089199;28;20028;-57
2021/10/31 11:48:23;;;;;;;6.47;0.50;;;;;;;;;;5090509;28;20286;-58
2021/10/31 11:51:10;;;;;;;6.25;0.60;;;;;;;;;;5097602;28;20114;-58
2021/10/31 11:54:03;;;;;;;6.72;0.60;;;;;;;;;;5096345;28;20440;-57
2021/10/31 11:56:28;;;;;;;3.17;0.30;;;;;;;;;;5098512;28;20024;-56
2021/10/31 11:59:08;;;;;;;1.35;0.10;;;;;;;;;;5097191;28;20051;-57
2021/10/31 12:01:47;;;;;;;1.02;0.10;;;;;;;;;;5096995;28;20493;-57
2021/10/31 12:07:53;;;;;;;2.40;0.13;;;;;;;;;;5087513;28;20028;-57
2021/10/31 12:10:27;;;;;;;3.42;0.17;;;;;;;;;;5097067;28;20035;-57
2021/10/31 12:13:22;;;;;;;4.70;0.10;;;;;;;;;;5093062;28;20390;-57
2021/10/31 12:16:07;;;;;;;6.13;0.20;;;;;;;;;;5091939;28;20032;-57
2021/10/31 12:18:53;;;;;;;2.90;0.30;;;;;;;;;;5094474;28;20062;-58
2021/10/31 12:21:30;;;;;;;5.55;0.30;;;;;;;;;;5090557;28;20479;-57
2021/10/31 12:24:04;;;;;;;6.50;0.50;;;;;;;;;;5093226;28;20032;-57
2021/10/31 12:26:39;;;;;;;3.45;0.15;;;;;;;;;;5094498;28;20524;-58
2021/10/31 12:29:17;;;;;;;5.63;0.45;;;;;;;;;;5097260;28;20050;-57
2021/10/31 12:32:17;;;;;;;6.22;1.02;;;;;;;;;;5094045;28;20028;-57
2021/10/31 12:34:49;;;;;;;7.40;0.73;;;;;;;;;;5095205;28;20034;-56
2021/10/31 12:37:21;;;;;;;3.38;0.40;;;;;;;;;;5096672;28;20055;-57
2021/10/31 12:40:05;;;;;;;5.05;0.38;;;;;;;;;;5096193;28;20074;-57
2021/10/31 12:42:37;;;;;;;5.57;0.60;;;;;;;;;;5100435;28;20699;-59
2021/10/31 12:45:29;;;;;;;4.00;0.85;;;;;;;;;;5101785;28;20024;-57
2021/10/31 12:48:06;;;;;;;3.13;0.15;;;;;;;;;;5097471;28;20050;-58
2021/10/31 12:50:33;;;;;;;3.60;0.32;;;;;;;;;;5094639;28;20061;-59
2021/10/31 12:53:01;;;;;;;2.33;0.30;;;;;;;;;;5096959;28;20142;-55
2021/10/31 12:55:27;;;;;;;3.00;0.30;;;;;;;;;;5094855;28;20407;-58
2021/10/31 12:58:02;;;;;;;0.98;0.15;;;;;;;;;;5099548;28;20081;-57
2021/10/31 13:00:31;;;;;;;4.22;0.50;;;;;;;;;;5092073;28;20031;-57
2021/10/31 13:03:02;;;;;;;3.42;0.52;;;;;;;;;;5091568;28;20492;-57
2021/10/31 13:05:35;;;;;;;6.23;0.63;;;;;;;;;;5102381;28;20506;-57
2021/10/31 13:08:03;;;;;;;3.78;0.50;;;;;;;;;;5094621;28;20119;-57
2021/10/31 13:10:31;;;;;;;4.07;0.52;;;;;;;;;;5091802;28;20035;-58
2021/10/31 13:13:02;;;;;;;5.13;0.52;;;;;;;;;;5103431;27;20051;-57
2021/10/31 13:15:29;;;;;;;2.70;0.47;;;;;;;;;;5095138;28;20141;-57
2021/10/31 13:17:55;;;;;;;2.08;0.40;;;;;;;;;;5092423;28;20108;-57
2021/10/31 13:20:23;;;;;;;4.28;0.47;;;;;;;;;;5096624;28;20114;-56
2021/10/31 13:22:52;;;;;;;3.70;0.52;;;;;;;;;;5098113;28;20553;-57
2021/10/31 13:25:51;;;;;;;8.65;0.60;;;;;;;;;;5095745;28;20032;-58
2021/10/31 13:28:22;;;;;;;5.32;1.05;;;;;;;;;;5097796;28;20106;-56
2021/10/31 13:31:14;;;;;;;8.93;0.57;;;;;;;;;;5095046;28;20023;-58
2021/10/31 13:33:51;;;;;;;2.17;0.40;;;;;;;;;;5092814;28;20031;-57
2021/10/31 13:36:22;;;;;;;4.30;0.50;;;;;;;;;;5096521;28;20040;-57
2021/10/31 13:38:56;;;;;;;2.38;0.47;;;;;;;;;;5098447;28;20509;-56
2021/10/31 13:41:27;;;;;;;5.25;0.47;;;;;;;;;;5097801;28;20591;-57
2021/10/31 13:43:54;;;;;;;1.90;0.30;;;;;;;;;;5096326;28;20020;-57
2021/10/31 13:46:21;;;;;;;2.92;0.30;;;;;;;;;;5095250;28;20071;-57
2021/10/31 13:48:53;;;;;;;2.85;0.38;;;;;;;;;;5097251;28;20038;-57
2021/10/31 13:51:19;;;;;;;1.83;0.45;;;;;;;;;;5092430;28;20032;-57
2021/10/31 13:53:45;;;;;;;4.00;1.13;;;;;;;;;;5081454;28;20032;-56
2021/10/31 13:56:11;;;;;;;4.45;0.73;;;;;;;;;;5100015;28;20580;-57
2021/10/31 13:58:36;;;;;;;3.38;0.80;;;;;;;;;;5098323;28;20070;-56
2021/10/31 14:01:02;;;;;;;3.25;0.75;;;;;;;;;;5097461;28;20035;-57
2021/10/31 14:03:28;;;;;;;11.43;1.25;;;;;;;;;;5096366;28;20027;-57
2021/10/31 14:06:05;;;;;;;2.22;1.00;;;;;;;;;;5091754;28;20081;-56
2021/10/31 14:08:43;;;;;;;2.33;0.60;;;;;;;;;;5090282;28;20059;-56
2021/10/31 14:11:13;;;;;;;1.92;0.57;;;;;;;;;;5085231;28;20597;-56
2021/10/31 14:13:40;;;;;;;3.97;0.73;;;;;;;;;;5082576;28;20036;-56
2021/10/31 14:16:19;;;;;;;4.20;1.30;;;;;;;;;;5095651;28;20028;-56
2021/10/31 14:18:46;;;;;;;1.77;0.50;;;;;;;;;;5093208;28;20033;-55
2021/10/31 14:21:13;;;;;;;1.17;0.40;;;;;;;;;;5090341;28;20028;-57
2021/10/31 14:23:40;;;;;;;1.92;0.80;;;;;;;;;;5099150;28;20039;-56
2021/10/31 14:26:08;;;;;;;3.40;0.93;;;;;;;;;;5098093;28;20028;-57
2021/10/31 14:28:38;;;;;;;4.60;1.15;;;;;;;;;;5097385;28;20057;-56
2021/10/31 14:31:10;;;;;;;5.00;1.35;;;;;;;;;;5094360;28;20035;-57
2021/10/31 14:33:39;;;;;;;7.90;1.77;;;;;;;;;;5096841;28;20024;-58
2021/10/31 14:36:06;;;;;;;8.98;2.10;;;;;;;;;;5094752;28;20040;-58
2021/10/31 14:38:39;;;;;;;4.20;1.33;;;;;;;;;;5093811;28;20486;-58
2021/10/31 14:41:17;;;;;;;5.95;1.63;;;;;;;;;;5095065;28;20035;-55
2021/10/31 14:43:49;;;;;;;3.97;1.17;;;;;;;;;;5091829;28;20031;-61
2021/10/31 14:46:17;;;;;;;2.05;0.82;;;;;;;;;;5100106;28;20031;-57
2021/10/31 14:48:52;;;;;;;2.45;1.02;;;;;;;;;;5101954;27;20536;-57
2021/10/31 14:51:26;;;;;;;2.13;0.55;;;;;;;;;;5096887;28;20028;-57
2021/10/31 14:54:07;;;;;;;3.83;1.10;;;;;;;;;;5092799;28;20551;-57
2021/10/31 14:56:43;;;;;;;3.53;1.15;;;;;;;;;;5092802;28;20032;-57